sensor_id;sensor_type;location;lat;lon;timestamp;pressure;altitude;pressure_sealevel;temperature;humidity
53868;BME280;41577;47.470;19.080;2022-11-15T00:00:22;100710.38;;;4.85;100.00
53868;BME280;41577;47.470;19.080;2022-11-15T00:00:56;100707.03;;;4.82;100.00
53868;BME280;41577;47.470;19.080;2022-11-15T00:01:28;100704.41;;;4.82;100.00
53868;BME280;41577;47.470;19.080;2022-11-15T00:02:00;100698.28;;;4.82;100.00
53868;BME280;41577;47.470;19.080;2022-11-15T00:02:33;100708.03;;;4.81;100.00
53868;BME280;41577;47.470;19.080;2022-11-15T00:03:05;100701.88;;;4.81;100.00
53868;BME280;41577;47.470;19.080;2022-11-15T00:03:39;100706.91;;;4.84;100.00
53868;BME280;41577;47.470;19.080;2022-11-15T00:04:11;100705.09;;;4.85;100.00
53868;BME280;41577;47.470;19.080;2022-11-15T00:04:43;100702.03;;;4.89;100.00
53868;BME280;41577;47.470;19.080;2022-11-15T00:05:16;100701.03;;;4.90;100.00
53868;BME280;41577;47.470;19.080;2022-11-15T00:05:48;100698.38;;;4.90;100.00
53868;BME280;41577;47.470;19.080;2022-11-15T00:06:20;100701.88;;;4.91;100.00
53868;BME280;41577;47.470;19.080;2022-11-15T00:06:53;100692.97;;;4.92;100.00
53868;BME280;41577;47.470;19.080;2022-11-15T00:07:25;100697.28;;;4.93;100.00
53868;BME280;41577;47.470;19.080;2022-11-15T00:07:58;100695.59;;;4.92;100.00
53868;BME280;41577;47.470;19.080;2022-11-15T00:08:30;100693.78;;;4.92;100.00
53868;BME280;41577;47.470;19.080;2022-11-15T00:09:04;100695.47;;;4.93;100.00
53868;BME280;41577;47.470;19.080;2022-11-15T00:09:36;100699.09;;;4.92;100.00
53868;BME280;41577;47.470;19.080;2022-11-15T00:10:09;100697.44;;;4.91;100.00
53868;BME280;41577;47.470;19.080;2022-11-15T00:10:41;100696.59;;;4.91;100.00
53868;BME280;41577;47.470;19.080;2022-11-15T00:11:14;100695.59;;;4.92;100.00
53868;BME280;41577;47.470;19.080;2022-11-15T00:11:47;100699.25;;;4.91;100.00
53868;BME280;41577;47.470;19.080;2022-11-15T00:12:20;100705.22;;;4.93;100.00
53868;BME280;41577;47.470;19.080;2022-11-15T00:12:52;100692.97;;;4.92;100.00
53868;BME280;41577;47.470;19.080;2022-11-15T00:13:25;100702.72;;;4.91;100.00
53868;BME280;41577;47.470;19.080;2022-11-15T00:13:57;100696.72;;;4.89;100.00
53868;BME280;41577;47.470;19.080;2022-11-15T00:14:31;100703.69;;;4.90;100.00
53868;BME280;41577;47.470;19.080;2022-11-15T00:15:04;100696.59;;;4.91;100.00
53868;BME280;41577;47.470;19.080;2022-11-15T00:15:36;100704.25;;;4.94;100.00
53868;BME280;41577;47.470;19.080;2022-11-15T00:16:09;100700.59;;;4.95;100.00
53868;BME280;41577;47.470;19.080;2022-11-15T00:16:42;100697.28;;;4.93;100.00
53868;BME280;41577;47.470;19.080;2022-11-15T00:17:14;100703.41;;;4.93;100.00
53868;BME280;41577;47.470;19.080;2022-11-15T00:17:48;100699.66;;;4.96;100.00
53868;BME280;41577;47.470;19.080;2022-11-15T00:18:21;100698.81;;;4.95;100.00
53868;BME280;41577;47.470;19.080;2022-11-15T00:18:53;100705.78;;;4.96;100.00
53868;BME280;41577;47.470;19.080;2022-11-15T00:19:26;100701.47;;;4.95;100.00
53868;BME280;41577;47.470;19.080;2022-11-15T00:19:58;100705.06;;;4.94;100.00
53868;BME280;41577;47.470;19.080;2022-11-15T00:20:30;100702.28;;;4.96;100.00
53868;BME280;41577;47.470;19.080;2022-11-15T00:21:04;100696.00;;;4.97;100.00
53868;BME280;41577;47.470;19.080;2022-11-15T00:21:37;100703.00;;;4.98;100.00
53868;BME280;41577;47.470;19.080;2022-11-15T00:22:10;100699.34;;;4.99;100.00
53868;BME280;41577;47.470;19.080;2022-11-15T00:22:42;100695.75;;;5.00;100.00
53868;BME280;41577;47.470;19.080;2022-11-15T00:23:14;100698.38;;;5.00;100.00
53868;BME280;41577;47.470;19.080;2022-11-15T00:23:47;100689.75;;;4.98;100.00
53868;BME280;41577;47.470;19.080;2022-11-15T00:24:21;100697.53;;;4.99;100.00
53868;BME280;41577;47.470;19.080;2022-11-15T00:24:53;100699.22;;;5.00;100.00
53868;BME280;41577;47.470;19.080;2022-11-15T00:25:26;100702.00;;;4.99;100.00
53868;BME280;41577;47.470;19.080;2022-11-15T00:25:59;100692.41;;;4.98;100.00
53868;BME280;41577;47.470;19.080;2022-11-15T00:26:31;100703.69;;;5.00;100.00
53868;BME280;41577;47.470;19.080;2022-11-15T00:27:03;100700.03;;;5.01;100.00
53868;BME280;41577;47.470;19.080;2022-11-15T00:27:36;100704.38;;;5.02;100.00
53868;BME280;41577;47.470;19.080;2022-11-15T00:28:08;100702.44;;;5.04;100.00
53868;BME280;41577;47.470;19.080;2022-11-15T00:28:41;100705.34;;;5.01;100.00
53868;BME280;41577;47.470;19.080;2022-11-15T00:29:13;100708.00;;;5.01;100.00
53868;BME280;41577;47.470;19.080;2022-11-15T00:29:58;100701.16;;;4.98;100.00
53868;BME280;41577;47.470;19.080;2022-11-15T00:30:31;100702.81;;;4.99;100.00
53868;BME280;41577;47.470;19.080;2022-11-15T00:31:04;100701.88;;;5.00;100.00
53868;BME280;41577;47.470;19.080;2022-11-15T00:31:38;100696.72;;;4.99;100.00
53868;BME280;41577;47.470;19.080;2022-11-15T00:32:11;100694.06;;;4.99;100.00
53868;BME280;41577;47.470;19.080;2022-11-15T00:32:43;100689.59;;;4.99;100.00
53868;BME280;41577;47.470;19.080;2022-11-15T00:33:16;100692.94;;;5.01;100.00
53868;BME280;41577;47.470;19.080;2022-11-15T00:33:49;100688.63;;;5.00;100.00
53868;BME280;41577;47.470;19.080;2022-11-15T00:34:22;100695.75;;;5.00;100.00
53868;BME280;41577;47.470;19.080;2022-11-15T00:34:54;100689.59;;;4.99;100.00
53868;BME280;41577;47.470;19.080;2022-11-15T00:35:27;100687.94;;;4.98;100.00
53868;BME280;41577;47.470;19.080;2022-11-15T00:36:00;100687.09;;;4.98;100.00
53868;BME280;41577;47.470;19.080;2022-11-15T00:36:33;100692.41;;;4.98;100.00
53868;BME280;41577;47.470;19.080;2022-11-15T00:37:05;100691.41;;;4.99;100.00
53868;BME280;41577;47.470;19.080;2022-11-15T00:37:38;100694.88;;;4.99;100.00
53868;BME280;41577;47.470;19.080;2022-11-15T00:38:11;100689.75;;;4.98;100.00
53868;BME280;41577;47.470;19.080;2022-11-15T00:38:43;100688.75;;;4.99;100.00
53868;BME280;41577;47.470;19.080;2022-11-15T00:39:16;100691.28;;;5.00;100.00
53868;BME280;41577;47.470;19.080;2022-11-15T00:39:50;100682.66;;;4.98;100.00
53868;BME280;41577;47.470;19.080;2022-11-15T00:40:23;100682.78;;;4.97;100.00
53868;BME280;41577;47.470;19.080;2022-11-15T00:40:56;100681.00;;;4.97;100.00
53868;BME280;41577;47.470;19.080;2022-11-15T00:41:29;100680.00;;;4.98;100.00
53868;BME280;41577;47.470;19.080;2022-11-15T00:42:01;100688.75;;;4.99;100.00
53868;BME280;41577;47.470;19.080;2022-11-15T00:42:34;100681.81;;;4.98;100.00
53868;BME280;41577;47.470;19.080;2022-11-15T00:43:06;100683.47;;;4.99;100.00
53868;BME280;41577;47.470;19.080;2022-11-15T00:43:39;100681.66;;;4.99;100.00
53868;BME280;41577;47.470;19.080;2022-11-15T00:44:11;100684.16;;;5.01;100.00
53868;BME280;41577;47.470;19.080;2022-11-15T00:44:43;100682.34;;;5.01;100.00
53868;BME280;41577;47.470;19.080;2022-11-15T00:45:16;100684.03;;;5.02;100.00
53868;BME280;41577;47.470;19.080;2022-11-15T00:45:49;100676.22;;;5.01;100.00
53868;BME280;41577;47.470;19.080;2022-11-15T00:46:22;100674.56;;;5.00;100.00
53868;BME280;41577;47.470;19.080;2022-11-15T00:46:55;100680.56;;;5.02;100.00
53868;BME280;41577;47.470;19.080;2022-11-15T00:47:28;100673.59;;;5.01;100.00
53868;BME280;41577;47.470;19.080;2022-11-15T00:48:00;100676.22;;;5.01;100.00
53868;BME280;41577;47.470;19.080;2022-11-15T00:48:33;100670.25;;;4.99;100.00
53868;BME280;41577;47.470;19.080;2022-11-15T00:49:06;100676.34;;;4.99;100.00
53868;BME280;41577;47.470;19.080;2022-11-15T00:49:38;100670.81;;;5.02;100.00
53868;BME280;41577;47.470;19.080;2022-11-15T00:50:10;100673.44;;;5.02;100.00
53868;BME280;41577;47.470;19.080;2022-11-15T00:50:43;100682.22;;;5.03;100.00
53868;BME280;41577;47.470;19.080;2022-11-15T00:51:15;100670.09;;;5.00;100.00
53868;BME280;41577;47.470;19.080;2022-11-15T00:51:48;100672.75;;;5.00;100.00
53868;BME280;41577;47.470;19.080;2022-11-15T00:52:20;100676.09;;;5.02;100.00
53868;BME280;41577;47.470;19.080;2022-11-15T00:52:53;100674.13;;;5.05;100.00
53868;BME280;41577;47.470;19.080;2022-11-15T00:53:25;100675.97;;;5.04;100.00
53868;BME280;41577;47.470;19.080;2022-11-15T00:53:58;100683.91;;;5.04;100.00
53868;BME280;41577;47.470;19.080;2022-11-15T00:54:31;100682.22;;;5.03;100.00
53868;BME280;41577;47.470;19.080;2022-11-15T00:55:06;100680.69;;;5.00;100.00
53868;BME280;41577;47.470;19.080;2022-11-15T00:55:39;100678.88;;;5.01;100.00
53868;BME280;41577;47.470;19.080;2022-11-15T00:56:11;100683.47;;;4.99;100.00
53868;BME280;41577;47.470;19.080;2022-11-15T00:56:44;100675.53;;;4.99;100.00
53868;BME280;41577;47.470;19.080;2022-11-15T00:57:17;100677.34;;;4.98;100.00
53868;BME280;41577;47.470;19.080;2022-11-15T00:57:49;100672.19;;;4.97;100.00
53868;BME280;41577;47.470;19.080;2022-11-15T00:58:21;100679.44;;;4.95;100.00
53868;BME280;41577;47.470;19.080;2022-11-15T00:58:57;100675.81;;;4.96;100.00
53868;BME280;41577;47.470;19.080;2022-11-15T00:59:29;100669.72;;;4.95;100.00
53868;BME280;41577;47.470;19.080;2022-11-15T01:00:02;100681.13;;;4.96;100.00
53868;BME280;41577;47.470;19.080;2022-11-15T01:00:35;100679.31;;;4.96;100.00
53868;BME280;41577;47.470;19.080;2022-11-15T01:01:09;100677.47;;;4.97;100.00
53868;BME280;41577;47.470;19.080;2022-11-15T01:01:41;100680.13;;;4.97;100.00
53868;BME280;41577;47.470;19.080;2022-11-15T01:02:13;100674.13;;;4.95;100.00
53868;BME280;41577;47.470;19.080;2022-11-15T01:02:46;100678.47;;;4.96;100.00
53868;BME280;41577;47.470;19.080;2022-11-15T01:03:18;100675.81;;;4.96;100.00
53868;BME280;41577;47.470;19.080;2022-11-15T01:03:51;100678.47;;;4.96;100.00
53868;BME280;41577;47.470;19.080;2022-11-15T01:04:23;100679.31;;;4.96;100.00
53868;BME280;41577;47.470;19.080;2022-11-15T01:04:57;100678.34;;;4.97;100.00
53868;BME280;41577;47.470;19.080;2022-11-15T01:05:29;100674.00;;;4.96;100.00
53868;BME280;41577;47.470;19.080;2022-11-15T01:06:02;100673.19;;;4.96;100.00
53868;BME280;41577;47.470;19.080;2022-11-15T01:06:34;100666.91;;;4.97;100.00
53868;BME280;41577;47.470;19.080;2022-11-15T01:07:07;100662.47;;;4.97;100.00
53868;BME280;41577;47.470;19.080;2022-11-15T01:07:39;100665.94;;;4.98;100.00
53868;BME280;41577;47.470;19.080;2022-11-15T01:08:12;100663.28;;;4.98;100.00
53868;BME280;41577;47.470;19.080;2022-11-15T01:08:44;100669.41;;;4.98;100.00
53868;BME280;41577;47.470;19.080;2022-11-15T01:09:16;100661.47;;;4.98;100.00
53868;BME280;41577;47.470;19.080;2022-11-15T01:09:49;100661.47;;;4.98;100.00
53868;BME280;41577;47.470;19.080;2022-11-15T01:10:23;100664.69;;;5.02;100.00
53868;BME280;41577;47.470;19.080;2022-11-15T01:11:00;100660.47;;;4.99;100.00
53868;BME280;41577;47.470;19.080;2022-11-15T01:11:33;100664.81;;;5.00;100.00
53868;BME280;41577;47.470;19.080;2022-11-15T01:12:07;100664.00;;;5.00;100.00
53868;BME280;41577;47.470;19.080;2022-11-15T01:12:39;100665.78;;;4.99;100.00
53868;BME280;41577;47.470;19.080;2022-11-15T01:13:12;100667.59;;;4.99;100.00
53868;BME280;41577;47.470;19.080;2022-11-15T01:13:44;100670.25;;;4.99;100.00
53868;BME280;41577;47.470;19.080;2022-11-15T01:14:16;100670.09;;;5.00;100.00
53868;BME280;41577;47.470;19.080;2022-11-15T01:14:49;100668.28;;;5.01;100.00
53868;BME280;41577;47.470;19.080;2022-11-15T01:15:22;100663.81;;;5.01;100.00
53868;BME280;41577;47.470;19.080;2022-11-15T01:15:55;100662.88;;;5.02;100.00
53868;BME280;41577;47.470;19.080;2022-11-15T01:16:27;100660.91;;;5.05;100.00
53868;BME280;41577;47.470;19.080;2022-11-15T01:16:59;100661.88;;;5.03;100.00
53868;BME280;41577;47.470;19.080;2022-11-15T01:17:32;100657.44;;;5.04;100.00
53868;BME280;41577;47.470;19.080;2022-11-15T01:18:04;100657.28;;;5.06;100.00
53868;BME280;41577;47.470;19.080;2022-11-15T01:18:37;100661.75;;;5.05;100.00
53868;BME280;41577;47.470;19.080;2022-11-15T01:19:10;100656.31;;;5.07;100.00
53868;BME280;41577;47.470;19.080;2022-11-15T01:19:42;100656.31;;;5.07;100.00
53868;BME280;41577;47.470;19.080;2022-11-15T01:20:15;100661.44;;;5.08;100.00
53868;BME280;41577;47.470;19.080;2022-11-15T01:20:48;100657.84;;;5.09;100.00
53868;BME280;41577;47.470;19.080;2022-11-15T01:21:20;100654.19;;;5.10;100.00
53868;BME280;41577;47.470;19.080;2022-11-15T01:21:52;100653.38;;;5.10;100.00
53868;BME280;41577;47.470;19.080;2022-11-15T01:22:25;100650.72;;;5.10;100.00
53868;BME280;41577;47.470;19.080;2022-11-15T01:22:57;100655.00;;;5.11;100.00
53868;BME280;41577;47.470;19.080;2022-11-15T01:23:29;100654.19;;;5.10;100.00
53868;BME280;41577;47.470;19.080;2022-11-15T01:24:01;100648.75;;;5.12;100.00
53868;BME280;41577;47.470;19.080;2022-11-15T01:24:34;100644.44;;;5.11;100.00
53868;BME280;41577;47.470;19.080;2022-11-15T01:25:07;100645.28;;;5.11;100.00
53868;BME280;41577;47.470;19.080;2022-11-15T01:25:40;100646.94;;;5.12;100.00
53868;BME280;41577;47.470;19.080;2022-11-15T01:26:13;100647.78;;;5.13;100.00
53868;BME280;41577;47.470;19.080;2022-11-15T01:26:46;100648.63;;;5.13;100.00
53868;BME280;41577;47.470;19.080;2022-11-15T01:27:18;100646.81;;;5.14;100.00
53868;BME280;41577;47.470;19.080;2022-11-15T01:27:51;100640.53;;;5.15;100.00
53868;BME280;41577;47.470;19.080;2022-11-15T01:28:23;100641.34;;;5.15;100.00
53868;BME280;41577;47.470;19.080;2022-11-15T01:28:56;100636.91;;;5.16;100.00
53868;BME280;41577;47.470;19.080;2022-11-15T01:29:28;100635.09;;;5.16;100.00
53868;BME280;41577;47.470;19.080;2022-11-15T01:30:01;100639.38;;;5.17;100.00
53868;BME280;41577;47.470;19.080;2022-11-15T01:30:35;100634.09;;;5.17;100.00
53868;BME280;41577;47.470;19.080;2022-11-15T01:31:11;100636.75;;;5.17;100.00
53868;BME280;41577;47.470;19.080;2022-11-15T01:31:45;100638.44;;;5.18;100.00
53868;BME280;41577;47.470;19.080;2022-11-15T01:32:18;100641.06;;;5.18;100.00
53868;BME280;41577;47.470;19.080;2022-11-15T01:32:50;100642.91;;;5.18;100.00
53868;BME280;41577;47.470;19.080;2022-11-15T01:33:22;100642.03;;;5.17;100.00
53868;BME280;41577;47.470;19.080;2022-11-15T01:33:55;100642.91;;;5.18;100.00
53868;BME280;41577;47.470;19.080;2022-11-15T01:34:28;100643.56;;;5.20;100.00
53868;BME280;41577;47.470;19.080;2022-11-15T01:35:00;100646.22;;;5.20;100.00
53868;BME280;41577;47.470;19.080;2022-11-15T01:35:32;100642.72;;;5.19;100.00
53868;BME280;41577;47.470;19.080;2022-11-15T01:36:06;100638.56;;;5.17;100.00
53868;BME280;41577;47.470;19.080;2022-11-15T01:36:39;100644.69;;;5.17;100.00
53868;BME280;41577;47.470;19.080;2022-11-15T01:37:12;100647.63;;;5.14;100.00
53868;BME280;41577;47.470;19.080;2022-11-15T01:37:45;100637.19;;;5.13;100.00
53868;BME280;41577;47.470;19.080;2022-11-15T01:38:17;100637.19;;;5.13;100.00
53868;BME280;41577;47.470;19.080;2022-11-15T01:38:53;100637.88;;;5.15;100.00
53868;BME280;41577;47.470;19.080;2022-11-15T01:39:25;100638.69;;;5.15;100.00
53868;BME280;41577;47.470;19.080;2022-11-15T01:39:58;100637.75;;;5.16;100.00
53868;BME280;41577;47.470;19.080;2022-11-15T01:40:30;100632.44;;;5.16;100.00
53868;BME280;41577;47.470;19.080;2022-11-15T01:41:05;100633.97;;;5.19;100.00
53868;BME280;41577;47.470;19.080;2022-11-15T01:41:38;100623.38;;;5.19;100.00
53868;BME280;41577;47.470;19.080;2022-11-15T01:42:12;100639.81;;;5.22;100.00
53868;BME280;41577;47.470;19.080;2022-11-15T01:42:44;100641.59;;;5.22;100.00
53868;BME280;41577;47.470;19.080;2022-11-15T01:43:24;100638.25;;;5.20;100.00
53868;BME280;41577;47.470;19.080;2022-11-15T01:44:31;100634.66;;;5.21;100.00
53868;BME280;41577;47.470;19.080;2022-11-15T01:44:51;100633.53;;;5.23;100.00
53868;BME280;41577;47.470;19.080;2022-11-15T01:45:35;100637.69;;;5.26;100.00
53868;BME280;41577;47.470;19.080;2022-11-15T01:46:19;100644.81;;;5.26;100.00
53868;BME280;41577;47.470;19.080;2022-11-15T01:46:55;100642.16;;;5.26;100.00
53868;BME280;41577;47.470;19.080;2022-11-15T01:47:30;100645.81;;;5.24;100.00
53868;BME280;41577;47.470;19.080;2022-11-15T01:48:04;100636.03;;;5.25;100.00
53868;BME280;41577;47.470;19.080;2022-11-15T01:48:37;100634.22;;;5.26;100.00
53868;BME280;41577;47.470;19.080;2022-11-15T01:49:12;100635.03;;;5.26;100.00
53868;BME280;41577;47.470;19.080;2022-11-15T01:49:51;100635.88;;;5.27;100.00
53868;BME280;41577;47.470;19.080;2022-11-15T01:50:30;100632.94;;;5.30;100.00
53868;BME280;41577;47.470;19.080;2022-11-15T01:51:06;100639.91;;;5.31;100.00
53868;BME280;41577;47.470;19.080;2022-11-15T01:51:41;100637.13;;;5.32;100.00
53868;BME280;41577;47.470;19.080;2022-11-15T01:52:16;100629.69;;;5.36;100.00
53868;BME280;41577;47.470;19.080;2022-11-15T01:52:50;100627.34;;;5.33;100.00
53868;BME280;41577;47.470;19.080;2022-11-15T01:53:23;100625.53;;;5.33;100.00
53868;BME280;41577;47.470;19.080;2022-11-15T01:53:59;100629.03;;;5.34;100.00
53868;BME280;41577;47.470;19.080;2022-11-15T01:54:33;100630.00;;;5.33;100.00
53868;BME280;41577;47.470;19.080;2022-11-15T01:55:09;100629.31;;;5.31;100.00
53868;BME280;41577;47.470;19.080;2022-11-15T01:55:42;100625.69;;;5.32;100.00
53868;BME280;41577;47.470;19.080;2022-11-15T01:56:18;100630.00;;;5.33;100.00
53868;BME280;41577;47.470;19.080;2022-11-15T01:56:53;100636.13;;;5.33;100.00
53868;BME280;41577;47.470;19.080;2022-11-15T01:57:28;100629.19;;;5.32;100.00
53868;BME280;41577;47.470;19.080;2022-11-15T01:58:02;100630.00;;;5.33;100.00
53868;BME280;41577;47.470;19.080;2022-11-15T01:58:37;100631.81;;;5.32;100.00
53868;BME280;41577;47.470;19.080;2022-11-15T01:59:11;100628.19;;;5.33;100.00
53868;BME280;41577;47.470;19.080;2022-11-15T01:59:44;100629.03;;;5.34;100.00
53868;BME280;41577;47.470;19.080;2022-11-15T02:00:17;100634.34;;;5.34;100.00
53868;BME280;41577;47.470;19.080;2022-11-15T02:00:50;100629.88;;;5.34;100.00
53868;BME280;41577;47.470;19.080;2022-11-15T02:01:26;100631.53;;;5.35;100.00
53868;BME280;41577;47.470;19.080;2022-11-15T02:01:58;100626.38;;;5.34;100.00
53868;BME280;41577;47.470;19.080;2022-11-15T02:02:31;100627.22;;;5.34;100.00
53868;BME280;41577;47.470;19.080;2022-11-15T02:03:04;100622.75;;;5.35;100.00
53868;BME280;41577;47.470;19.080;2022-11-15T02:03:41;100622.75;;;5.35;100.00
53868;BME280;41577;47.470;19.080;2022-11-15T02:04:16;100628.19;;;5.33;100.00
53868;BME280;41577;47.470;19.080;2022-11-15T02:04:48;100623.56;;;5.35;100.00
53868;BME280;41577;47.470;19.080;2022-11-15T02:05:21;100619.28;;;5.34;100.00
53868;BME280;41577;47.470;19.080;2022-11-15T02:05:53;100619.28;;;5.34;100.00
53868;BME280;41577;47.470;19.080;2022-11-15T02:06:26;100626.38;;;5.34;100.00
53868;BME280;41577;47.470;19.080;2022-11-15T02:06:58;100621.22;;;5.32;100.00
53868;BME280;41577;47.470;19.080;2022-11-15T02:07:33;100621.38;;;5.31;100.00
53868;BME280;41577;47.470;19.080;2022-11-15T02:08:06;100625.84;;;5.30;100.00
53868;BME280;41577;47.470;19.080;2022-11-15T02:08:40;100625.69;;;5.32;100.00
53868;BME280;41577;47.470;19.080;2022-11-15T02:09:13;100628.34;;;5.32;100.00
53868;BME280;41577;47.470;19.080;2022-11-15T02:09:46;100620.41;;;5.32;100.00
53868;BME280;41577;47.470;19.080;2022-11-15T02:10:20;100623.06;;;5.32;100.00
53868;BME280;41577;47.470;19.080;2022-11-15T02:10:53;100621.09;;;5.34;100.00
53868;BME280;41577;47.470;19.080;2022-11-15T02:11:27;100625.53;;;5.33;100.00
53868;BME280;41577;47.470;19.080;2022-11-15T02:12:00;100616.75;;;5.33;100.00
53868;BME280;41577;47.470;19.080;2022-11-15T02:12:33;100622.88;;;5.33;100.00
53868;BME280;41577;47.470;19.080;2022-11-15T02:13:06;100620.22;;;5.33;100.00
53868;BME280;41577;47.470;19.080;2022-11-15T02:13:40;100618.44;;;5.34;100.00
53868;BME280;41577;47.470;19.080;2022-11-15T02:14:14;100623.19;;;5.30;100.00
53868;BME280;41577;47.470;19.080;2022-11-15T02:14:50;100616.25;;;5.29;100.00
53868;BME280;41577;47.470;19.080;2022-11-15T02:15:28;100621.53;;;5.29;100.00
53868;BME280;41577;47.470;19.080;2022-11-15T02:16:09;100620.69;;;5.29;100.00
53868;BME280;41577;47.470;19.080;2022-11-15T02:16:53;100619.84;;;5.28;100.00
53868;BME280;41577;47.470;19.080;2022-11-15T02:17:38;100608.94;;;5.31;100.00
53868;BME280;41577;47.470;19.080;2022-11-15T02:18:21;100614.41;;;5.30;100.00
53868;BME280;41577;47.470;19.080;2022-11-15T02:19:00;100616.25;;;5.29;100.00
53868;BME280;41577;47.470;19.080;2022-11-15T02:20:05;100611.59;;;5.31;100.00
53868;BME280;41577;47.470;19.080;2022-11-15T02:20:43;100610.78;;;5.31;100.00
53868;BME280;41577;47.470;19.080;2022-11-15T02:21:23;100606.47;;;5.30;100.00
53868;BME280;41577;47.470;19.080;2022-11-15T02:22:07;100609.13;;;5.30;100.00
53868;BME280;41577;47.470;19.080;2022-11-15T02:22:58;100612.47;;;5.32;100.00
53868;BME280;41577;47.470;19.080;2022-11-15T02:24:14;100606.47;;;5.30;100.00
53868;BME280;41577;47.470;19.080;2022-11-15T02:25:13;100607.16;;;5.32;100.00
53868;BME280;41577;47.470;19.080;2022-11-15T02:26:11;100603.00;;;5.29;100.00
53868;BME280;41577;47.470;19.080;2022-11-15T02:27:29;100603.13;;;5.28;100.00
53868;BME280;41577;47.470;19.080;2022-11-15T02:28:32;100605.91;;;5.26;100.00
53868;BME280;41577;47.470;19.080;2022-11-15T02:29:07;100605.91;;;5.26;100.00
53868;BME280;41577;47.470;19.080;2022-11-15T02:29:59;100601.75;;;5.23;100.00
53868;BME280;41577;47.470;19.080;2022-11-15T02:30:41;100600.94;;;5.23;100.00
53868;BME280;41577;47.470;19.080;2022-11-15T02:31:17;100603.28;;;5.26;100.00
53868;BME280;41577;47.470;19.080;2022-11-15T02:31:58;100592.00;;;5.24;100.00
53868;BME280;41577;47.470;19.080;2022-11-15T02:32:36;100602.75;;;5.22;100.00
53868;BME280;41577;47.470;19.080;2022-11-15T02:33:21;100599.41;;;5.20;100.00
53868;BME280;41577;47.470;19.080;2022-11-15T02:34:00;100592.59;;;5.18;100.00
53868;BME280;41577;47.470;19.080;2022-11-15T02:34:41;100601.50;;;5.17;100.00
53868;BME280;41577;47.470;19.080;2022-11-15T02:35:21;100599.00;;;5.15;100.00
53868;BME280;41577;47.470;19.080;2022-11-15T02:35:59;100599.00;;;5.15;100.00
53868;BME280;41577;47.470;19.080;2022-11-15T02:36:36;100599.97;;;5.14;100.00
53868;BME280;41577;47.470;19.080;2022-11-15T02:37:16;100594.69;;;5.14;100.00
53868;BME280;41577;47.470;19.080;2022-11-15T02:37:54;100594.81;;;5.13;100.00
53868;BME280;41577;47.470;19.080;2022-11-15T02:38:32;100592.03;;;5.14;100.00
53868;BME280;41577;47.470;19.080;2022-11-15T02:39:13;100591.22;;;5.14;100.00
53868;BME280;41577;47.470;19.080;2022-11-15T02:39:51;100590.38;;;5.13;100.00
53868;BME280;41577;47.470;19.080;2022-11-15T02:40:34;100590.53;;;5.12;100.00
53868;BME280;41577;47.470;19.080;2022-11-15T02:41:14;100590.66;;;5.10;100.00
53868;BME280;41577;47.470;19.080;2022-11-15T02:41:52;100590.81;;;5.09;100.00
53868;BME280;41577;47.470;19.080;2022-11-15T02:42:27;100590.97;;;5.07;100.00
53868;BME280;41577;47.470;19.080;2022-11-15T02:43:05;100596.38;;;5.06;100.00
53868;BME280;41577;47.470;19.080;2022-11-15T02:43:43;100592.09;;;5.05;100.00
53868;BME280;41577;47.470;19.080;2022-11-15T02:44:23;100591.09;;;5.06;100.00
53868;BME280;41577;47.470;19.080;2022-11-15T02:44:58;100591.78;;;5.08;100.00
53868;BME280;41577;47.470;19.080;2022-11-15T02:45:39;100597.09;;;5.08;100.00
53868;BME280;41577;47.470;19.080;2022-11-15T02:46:17;100592.22;;;5.03;100.00
53868;BME280;41577;47.470;19.080;2022-11-15T02:46:52;100588.63;;;5.04;100.00
53868;BME280;41577;47.470;19.080;2022-11-15T02:47:27;100593.75;;;5.06;100.00
53868;BME280;41577;47.470;19.080;2022-11-15T02:48:04;100593.75;;;5.06;100.00
53868;BME280;41577;47.470;19.080;2022-11-15T02:48:38;100590.97;;;5.07;100.00
53868;BME280;41577;47.470;19.080;2022-11-15T02:49:11;100587.63;;;5.05;100.00
53868;BME280;41577;47.470;19.080;2022-11-15T02:49:47;100589.28;;;5.06;100.00
53868;BME280;41577;47.470;19.080;2022-11-15T02:50:24;100593.06;;;5.03;100.00
53868;BME280;41577;47.470;19.080;2022-11-15T02:50:58;100594.56;;;5.06;100.00
53868;BME280;41577;47.470;19.080;2022-11-15T02:51:32;100599.03;;;5.06;100.00
53868;BME280;41577;47.470;19.080;2022-11-15T02:52:05;100590.28;;;5.05;100.00
53868;BME280;41577;47.470;19.080;2022-11-15T02:52:38;100599.88;;;5.06;100.00
53868;BME280;41577;47.470;19.080;2022-11-15T02:53:11;100603.38;;;5.07;100.00
53868;BME280;41577;47.470;19.080;2022-11-15T02:53:43;100595.44;;;5.07;100.00
53868;BME280;41577;47.470;19.080;2022-11-15T02:54:19;100596.25;;;5.07;100.00
53868;BME280;41577;47.470;19.080;2022-11-15T02:54:54;100600.56;;;5.08;100.00
53868;BME280;41577;47.470;19.080;2022-11-15T02:55:28;100597.22;;;5.06;100.00
53868;BME280;41577;47.470;19.080;2022-11-15T02:56:01;100596.25;;;5.07;100.00
53868;BME280;41577;47.470;19.080;2022-11-15T02:56:34;100600.56;;;5.08;100.00
53868;BME280;41577;47.470;19.080;2022-11-15T02:57:12;100595.13;;;5.10;100.00
53868;BME280;41577;47.470;19.080;2022-11-15T02:57:52;100597.09;;;5.08;100.00
53868;BME280;41577;47.470;19.080;2022-11-15T02:58:44;100591.78;;;5.08;100.00
53868;BME280;41577;47.470;19.080;2022-11-15T02:59:37;100598.06;;;5.07;100.00
53868;BME280;41577;47.470;19.080;2022-11-15T03:00:15;100601.56;;;5.07;100.00
53868;BME280;41577;47.470;19.080;2022-11-15T03:00:52;100602.38;;;5.08;100.00